Vidfoss — V2QK4 — position and weather

sailwx.info

Track history (hours):
 
Tides and Currents Weather Stations Pressure Air Temp Water Temp Dewpoint Dewpoint Depression Visibility Wind Speed Wind Dir Waves Ship Positions

Vidfoss

Last reported at 2016-Aug-30 23:33 UTC. Time now 2016-Aug-31 00:28 UTC.
Position N 61°44' W 005°45'.

Length 93 m; draft 5.6 m.

Type: Cargo ship. MMSI: 305846000.

Date/timePositionNaut miles runAvg speedWind from/ knotsBaromVisibWave heightAir tempDewpointWater temp
2016-Aug-30 23:33N 61°44' W 005°45'1010.0
2016-Aug-30 22:34N 61°52' W 005°58'9 9.5
2016-Aug-30 21:34N 61°60' W 006°10'1110.5
2016-Aug-30 20:33N 62°07' W 006°26'1212.1
2016-Aug-30 19:33N 62°14' W 006°48'0 0.2
2016-Aug-30 18:31N 62°14' W 006°48'0 0.0
2016-Aug-30 17:33N 62°14' W 006°48'0 0.0
2016-Aug-30 14:28N 62°14' W 006°48'7 7.4
2016-Aug-30 13:33N 62°20' W 006°53'1211.6
2016-Aug-30 12:34N 62°28' W 007°11'1212.0
2016-Aug-30 11:33N 62°37' W 007°29'1211.7
2016-Aug-30 10:33N 62°45' W 007°48'1211.6
2016-Aug-30 09:33N 62°53' W 008°06'  
2016-Aug-21 13:29N 69°19' E 017°59'9 9.8
2016-Aug-21 12:32N 69°10' E 017°55'  
Track history (hours):
 
Tides and Currents Weather Stations Pressure Air Temp Water Temp Dewpoint Dewpoint Depression Visibility Wind Speed Wind Dir Waves Ship Positions

Vidfoss

Last reported at 2016-Aug-30 23:33 UTC. Time now 2016-Aug-31 00:28 UTC.
Position N 61°44' W 005°45'.

Length 93 m; draft 5.6 m.

Type: Cargo ship. MMSI: 305846000.

Date/timePositionNaut miles runAvg speedWind from/ knotsBaromVisibWave heightAir tempDewpointWater temp
2016-Aug-30 23:33N 61°44' W 005°45'1010.0
2016-Aug-30 22:34N 61°52' W 005°58'9 9.5
2016-Aug-30 21:34N 61°60' W 006°10'1110.5
2016-Aug-30 20:33N 62°07' W 006°26'1212.1
2016-Aug-30 19:33N 62°14' W 006°48'0 0.2
2016-Aug-30 18:31N 62°14' W 006°48'0 0.0
2016-Aug-30 17:33N 62°14' W 006°48'0 0.0
2016-Aug-30 14:28N 62°14' W 006°48'7 7.4
2016-Aug-30 13:33N 62°20' W 006°53'1211.6
2016-Aug-30 12:34N 62°28' W 007°11'1212.0
2016-Aug-30 11:33N 62°37' W 007°29'1211.7
2016-Aug-30 10:33N 62°45' W 007°48'1211.6
2016-Aug-30 09:33N 62°53' W 008°06'  
2016-Aug-21 13:29N 69°19' E 017°59'9 9.8
2016-Aug-21 12:32N 69°10' E 017°55'  

Dump ship's entire track history